Time;durP1;ratioP1;P1;durP2;ratioP2;P2;SDS_P1;SDS_P2;PMS_P1;PMS_P2;Temp;Humidity;BMP_temperature;BMP_pressure;BME280_temperature;BME280_humidity;BME280_pressure;Samples;Min_cycle;Max_cycle;Signal;HPM_P1;HPM_P2
2022/08/13 00:00:24;;;;;;;3.78;1.80;;;;;;;;;;5079130;28;20332;-74
2022/08/13 00:02:51;;;;;;;4.15;1.60;;;;;;;;;;5079035;28;20275;-74
2022/08/13 00:05:24;;;;;;;2.17;1.60;;;;;;;;;;5059250;28;20219;-74
2022/08/13 00:07:52;;;;;;;1.60;1.50;;;;;;;;;;5047617;28;20209;-74
2022/08/13 00:10:24;;;;;;;2.10;1.65;;;;;;;;;;5037058;28;20236;-74
2022/08/13 00:13:00;;;;;;;7.50;1.65;;;;;;;;;;5045642;28;20228;-75
2022/08/13 00:15:43;;;;;;;3.20;1.65;;;;;;;;;;5038236;28;20225;-74
2022/08/13 00:18:20;;;;;;;2.35;1.60;;;;;;;;;;5059941;28;20223;-76
2022/08/13 00:20:50;;;;;;;1.55;1.50;;;;;;;;;;5048854;28;20578;-74
2022/08/13 00:23:17;;;;;;;1.63;1.55;;;;;;;;;;5048392;28;20215;-76
2022/08/13 00:25:43;;;;;;;1.73;1.63;;;;;;;;;;5059041;28;20218;-75
2022/08/13 00:28:11;;;;;;;2.85;1.67;;;;;;;;;;5072769;28;20314;-75
2022/08/13 00:30:38;;;;;;;2.28;1.80;;;;;;;;;;5034357;28;20325;-74
2022/08/13 00:33:03;;;;;;;1.77;1.45;;;;;;;;;;5056144;28;20219;-75
2022/08/13 00:35:31;;;;;;;2.00;1.63;;;;;;;;;;5067367;28;20706;-75
2022/08/13 00:37:59;;;;;;;1.95;1.85;;;;;;;;;;5061702;28;20218;-75
2022/08/13 00:40:29;;;;;;;3.90;1.73;;;;;;;;;;5062497;28;20234;-75
2022/08/13 00:43:04;;;;;;;2.53;1.83;;;;;;;;;;5043831;28;20219;-75
2022/08/13 00:45:31;;;;;;;2.92;1.88;;;;;;;;;;5029891;28;20214;-75
2022/08/13 00:50:42;;;;;;;1.60;1.50;;;;;;;;;;5058722;28;20231;-75
2022/08/13 00:53:18;;;;;;;2.63;1.60;;;;;;;;;;5043190;28;20222;-74
2022/08/13 00:55:49;;;;;;;1.85;1.60;;;;;;;;;;5068693;28;20231;-74
2022/08/13 00:58:16;;;;;;;2.58;1.73;;;;;;;;;;5059122;28;20236;-75
2022/08/13 01:00:46;;;;;;;1.88;1.70;;;;;;;;;;5055715;28;20215;-75
2022/08/13 01:03:14;;;;;;;2.38;1.95;;;;;;;;;;5057409;28;20560;-74
2022/08/13 01:05:46;;;;;;;1.65;1.55;;;;;;;;;;5044770;28;20704;-74
2022/08/13 01:08:16;;;;;;;3.33;1.67;;;;;;;;;;5034189;28;20282;-74
2022/08/13 01:10:41;;;;;;;2.58;1.70;;;;;;;;;;5061108;28;20711;-75
2022/08/13 01:13:11;;;;;;;1.83;1.70;;;;;;;;;;5043584;28;20214;-74
2022/08/13 01:15:40;;;;;;;2.83;1.90;;;;;;;;;;5044764;28;20688;-74
2022/08/13 01:18:13;;;;;;;3.03;2.00;;;;;;;;;;5060547;28;20226;-74
2022/08/13 01:21:08;;;;;;;3.63;1.80;;;;;;;;;;5044708;28;20229;-75
2022/08/13 01:23:36;;;;;;;4.22;2.03;;;;;;;;;;5063617;28;20559;-75
2022/08/13 01:26:04;;;;;;;1.80;1.70;;;;;;;;;;5045286;28;20225;-75
2022/08/13 01:28:29;;;;;;;2.45;1.92;;;;;;;;;;5056759;28;20217;-75
2022/08/13 01:31:04;;;;;;;2.30;2.00;;;;;;;;;;5048863;28;20245;-75
2022/08/13 01:33:30;;;;;;;1.75;1.65;;;;;;;;;;5040351;28;20822;-75
2022/08/13 01:35:55;;;;;;;2.00;1.65;;;;;;;;;;5050019;28;20210;-75
2022/08/13 01:38:22;;;;;;;1.92;1.73;;;;;;;;;;5058610;28;20604;-75
2022/08/13 01:40:50;;;;;;;2.00;1.90;;;;;;;;;;5044129;28;20225;-75
2022/08/13 01:43:20;;;;;;;2.40;2.03;;;;;;;;;;5039109;28;20268;-75
2022/08/13 01:45:45;;;;;;;3.45;1.92;;;;;;;;;;5058365;28;20221;-75
2022/08/13 01:50:57;;;;;;;1.70;1.60;;;;;;;;;;5039823;28;20654;-75
2022/08/13 01:53:25;;;;;;;2.42;1.70;;;;;;;;;;5049509;28;20309;-75
2022/08/13 01:55:55;;;;;;;4.70;2.03;;;;;;;;;;5070126;28;20284;-75
2022/08/13 01:58:22;;;;;;;2.47;1.70;;;;;;;;;;5048511;28;20225;-75
2022/08/13 02:00:59;;;;;;;2.00;1.90;;;;;;;;;;5068479;28;20318;-75
2022/08/13 02:03:25;;;;;;;3.50;2.00;;;;;;;;;;5027395;28;20213;-75
2022/08/13 02:05:51;;;;;;;1.85;1.75;;;;;;;;;;5039247;28;20275;-75
2022/08/13 02:08:22;;;;;;;2.30;1.80;;;;;;;;;;5045856;28;20229;-75
2022/08/13 02:10:52;;;;;;;2.45;1.60;;;;;;;;;;5029364;28;20336;-75
2022/08/13 02:13:23;;;;;;;3.42;1.85;;;;;;;;;;5058890;28;20718;-75
2022/08/13 02:15:51;;;;;;;3.58;1.67;;;;;;;;;;5051384;28;20225;-75
2022/08/13 02:18:18;;;;;;;3.17;1.98;;;;;;;;;;5033007;28;20230;-75
2022/08/13 02:20:45;;;;;;;2.53;1.70;;;;;;;;;;5042410;28;20231;-75
2022/08/13 02:23:19;;;;;;;4.50;1.90;;;;;;;;;;5022854;28;20226;-75
2022/08/13 02:25:45;;;;;;;2.05;1.88;;;;;;;;;;5033257;28;20210;-75
2022/08/13 02:28:14;;;;;;;2.35;2.15;;;;;;;;;;5027143;28;20279;-75
2022/08/13 02:30:48;;;;;;;1.83;1.70;;;;;;;;;;5049036;28;20226;-75
2022/08/13 02:33:14;;;;;;;2.65;1.85;;;;;;;;;;5027679;28;20233;-75
2022/08/13 02:35:40;;;;;;;2.22;1.92;;;;;;;;;;5027656;28;20225;-75
2022/08/13 02:38:11;;;;;;;1.90;1.80;;;;;;;;;;5025348;28;20222;-75
2022/08/13 02:43:32;;;;;;;2.17;1.60;;;;;;;;;;5047301;28;20242;-75
2022/08/13 02:46:00;;;;;;;2.55;1.50;;;;;;;;;;5052845;28;20214;-76
2022/08/13 02:48:29;;;;;;;1.90;1.80;;;;;;;;;;5062883;28;20218;-75
2022/08/13 02:50:55;;;;;;;2.03;1.90;;;;;;;;;;5038207;28;20649;-75
2022/08/13 02:53:22;;;;;;;1.88;1.77;;;;;;;;;;5043766;28;20642;-75
2022/08/13 02:55:50;;;;;;;2.10;1.90;;;;;;;;;;5030029;28;20229;-75
2022/08/13 02:58:16;;;;;;;2.03;1.90;;;;;;;;;;5068374;28;20229;-75
2022/08/13 03:00:47;;;;;;;1.67;1.58;;;;;;;;;;5060514;28;20221;-75
2022/08/13 03:03:13;;;;;;;1.90;1.80;;;;;;;;;;5044369;28;20270;-76
2022/08/13 03:05:43;;;;;;;2.03;1.83;;;;;;;;;;5048534;28;20583;-75
2022/08/13 03:08:11;;;;;;;3.10;1.77;;;;;;;;;;5040824;28;20219;-75
2022/08/13 03:10:39;;;;;;;2.00;1.90;;;;;;;;;;5032127;28;20849;-75
2022/08/13 03:13:24;;;;;;;3.40;2.00;;;;;;;;;;5063492;28;20325;-75
2022/08/13 03:15:55;;;;;;;2.38;1.90;;;;;;;;;;5065862;28;20611;-75
2022/08/13 03:18:21;;;;;;;2.22;2.05;;;;;;;;;;5061866;28;20234;-75
2022/08/13 03:20:49;;;;;;;2.38;2.13;;;;;;;;;;5062811;28;20256;-75
2022/08/13 03:23:14;;;;;;;2.40;2.20;;;;;;;;;;5047110;28;20317;-75
2022/08/13 03:25:42;;;;;;;4.07;2.20;;;;;;;;;;5032501;28;20218;-75
2022/08/13 03:28:14;;;;;;;2.33;2.10;;;;;;;;;;5060080;28;20728;-76
2022/08/13 03:30:41;;;;;;;3.05;2.10;;;;;;;;;;5067593;28;20232;-75
2022/08/13 03:33:13;;;;;;;2.08;1.98;;;;;;;;;;5047510;28;20221;-75
2022/08/13 03:35:43;;;;;;;3.58;2.30;;;;;;;;;;5036248;28;20221;-75
2022/08/13 03:38:12;;;;;;;2.42;2.20;;;;;;;;;;5045348;28;20218;-75
2022/08/13 03:43:27;;;;;;;2.35;2.20;;;;;;;;;;5062294;28;20227;-75
2022/08/13 03:45:55;;;;;;;1.90;1.80;;;;;;;;;;5068033;28;20215;-75
2022/08/13 03:48:21;;;;;;;1.95;1.85;;;;;;;;;;5061468;28;20222;-76
2022/08/13 03:50:48;;;;;;;2.30;2.10;;;;;;;;;;5060063;28;20726;-75
2022/08/13 03:53:15;;;;;;;2.75;2.55;;;;;;;;;;5029505;28;20280;-75
2022/08/13 03:55:42;;;;;;;2.50;2.30;;;;;;;;;;5046580;28;20221;-75
2022/08/13 03:58:08;;;;;;;4.53;2.35;;;;;;;;;;5068712;28;20218;-76
2022/08/13 04:00:47;;;;;;;1.98;1.88;;;;;;;;;;5058039;28;20984;-75
2022/08/13 04:03:16;;;;;;;2.13;1.83;;;;;;;;;;5036342;28;20226;-75
2022/08/13 04:05:44;;;;;;;2.38;2.17;;;;;;;;;;5046092;28;20617;-75
2022/08/13 04:08:11;;;;;;;2.20;1.80;;;;;;;;;;5046448;28;20222;-75
2022/08/13 04:10:37;;;;;;;5.30;2.35;;;;;;;;;;5059526;28;20249;-75
2022/08/13 04:13:05;;;;;;;2.50;2.40;;;;;;;;;;5058924;28;20231;-75
2022/08/13 04:15:31;;;;;;;4.30;2.03;;;;;;;;;;5069190;28;20222;-76
2022/08/13 04:17:57;;;;;;;2.58;2.38;;;;;;;;;;5042668;28;20225;-76
2022/08/13 04:20:25;;;;;;;2.47;2.28;;;;;;;;;;5058842;28;20715;-75
2022/08/13 04:22:54;;;;;;;5.03;2.30;;;;;;;;;;5037856;28;20336;-75
2022/08/13 04:25:20;;;;;;;2.20;2.10;;;;;;;;;;5066271;28;20314;-75
2022/08/13 04:27:45;;;;;;;2.75;2.47;;;;;;;;;;5070821;28;20223;-75
2022/08/13 04:30:11;;;;;;;2.50;2.30;;;;;;;;;;5044104;28;20241;-75
2022/08/13 04:32:43;;;;;;;2.33;2.20;;;;;;;;;;5026325;28;20802;-75
2022/08/13 04:35:11;;;;;;;2.53;2.30;;;;;;;;;;5051165;28;20213;-75
2022/08/13 04:37:37;;;;;;;3.05;2.33;;;;;;;;;;5069238;28;20226;-75
2022/08/13 04:40:03;;;;;;;3.03;2.22;;;;;;;;;;5026126;28;20225;-74
2022/08/13 04:42:48;;;;;;;2.28;2.10;;;;;;;;;;5040951;28;20225;-76
2022/08/13 04:45:13;;;;;;;2.67;2.47;;;;;;;;;;5068313;28;20757;-76
2022/08/13 04:47:42;;;;;;;8.93;2.40;;;;;;;;;;5047312;28;20226;-74
2022/08/13 04:50:09;;;;;;;2.50;2.30;;;;;;;;;;5041211;28;20222;-76
2022/08/13 04:52:38;;;;;;;2.47;2.28;;;;;;;;;;5035813;28;20304;-75
2022/08/13 04:55:11;;;;;;;2.58;2.38;;;;;;;;;;5026348;28;20228;-76
2022/08/13 04:57:41;;;;;;;2.50;2.30;;;;;;;;;;5047612;28;20271;-76
2022/08/13 05:00:08;;;;;;;2.40;2.20;;;;;;;;;;5061298;28;20246;-75
2022/08/13 05:02:41;;;;;;;2.35;2.17;;;;;;;;;;5041005;28;20332;-76
2022/08/13 05:05:07;;;;;;;3.25;2.17;;;;;;;;;;5038076;28;20226;-76
2022/08/13 05:07:33;;;;;;;3.00;2.67;;;;;;;;;;5027447;28;20761;-75
2022/08/13 05:09:58;;;;;;;2.45;2.33;;;;;;;;;;5043336;28;20226;-75
2022/08/13 05:12:26;;;;;;;2.30;2.10;;;;;;;;;;5039247;28;20238;-75
2022/08/13 05:14:52;;;;;;;2.25;2.08;;;;;;;;;;5033810;28;20377;-75
2022/08/13 05:17:17;;;;;;;2.25;2.08;;;;;;;;;;5029341;28;20215;-75
2022/08/13 05:19:46;;;;;;;2.15;2.00;;;;;;;;;;5063655;28;20255;-75
2022/08/13 05:22:12;;;;;;;2.30;2.10;;;;;;;;;;5062074;28;20231;-75
2022/08/13 05:24:37;;;;;;;2.50;2.30;;;;;;;;;;5060948;28;20222;-75
2022/08/13 05:27:04;;;;;;;2.78;2.35;;;;;;;;;;5057699;28;20222;-75
2022/08/13 05:29:29;;;;;;;2.17;2.00;;;;;;;;;;5061996;28;20226;-75
2022/08/13 05:32:00;;;;;;;2.78;2.22;;;;;;;;;;5043180;28;20233;-75
2022/08/13 05:34:28;;;;;;;2.40;2.15;;;;;;;;;;5028111;28;20218;-75
2022/08/13 05:36:57;;;;;;;5.28;2.40;;;;;;;;;;5050942;28;20223;-75
2022/08/13 05:39:23;;;;;;;2.13;1.98;;;;;;;;;;5046934;28;20226;-75
2022/08/13 05:41:50;;;;;;;2.45;2.20;;;;;;;;;;5066737;28;20225;-76
2022/08/13 05:44:21;;;;;;;2.38;2.17;;;;;;;;;;5025266;28;20595;-75
2022/08/13 05:46:49;;;;;;;2.50;2.30;;;;;;;;;;5030487;28;20421;-75
2022/08/13 05:49:15;;;;;;;3.05;2.10;;;;;;;;;;5031412;28;20226;-76
2022/08/13 05:51:44;;;;;;;2.92;2.53;;;;;;;;;;5040985;28;20225;-75
2022/08/13 05:54:10;;;;;;;3.65;2.40;;;;;;;;;;5033308;28;20223;-75
2022/08/13 05:56:37;;;;;;;4.38;2.30;;;;;;;;;;5028049;28;20214;-75
2022/08/13 05:59:05;;;;;;;3.40;2.20;;;;;;;;;;5066685;28;20226;-76
2022/08/13 06:04:16;;;;;;;5.25;2.17;;;;;;;;;;5060676;28;20226;-76
2022/08/13 06:06:42;;;;;;;2.35;2.15;;;;;;;;;;5067794;28;20255;-75
2022/08/13 06:09:10;;;;;;;2.50;2.10;;;;;;;;;;5024585;28;20222;-75
2022/08/13 06:11:40;;;;;;;2.72;2.33;;;;;;;;;;5025811;28;20221;-75
2022/08/13 06:14:06;;;;;;;3.45;2.60;;;;;;;;;;5029420;28;20214;-74
2022/08/13 06:16:34;;;;;;;2.42;2.17;;;;;;;;;;5043108;28;20217;-75
2022/08/13 06:19:03;;;;;;;2.63;2.20;;;;;;;;;;5031673;28;20221;-75
2022/08/13 06:21:30;;;;;;;2.30;2.10;;;;;;;;;;5041215;28;20218;-75
2022/08/13 06:23:58;;;;;;;3.55;2.58;;;;;;;;;;5045295;28;20264;-75
2022/08/13 06:26:23;;;;;;;3.67;2.65;;;;;;;;;;5045987;28;20214;-76
2022/08/13 06:28:52;;;;;;;2.85;2.45;;;;;;;;;;5040368;28;20629;-76
2022/08/13 06:31:25;;;;;;;2.78;2.50;;;;;;;;;;5044809;28;20333;-75
2022/08/13 06:33:55;;;;;;;2.58;2.35;;;;;;;;;;5083412;28;20232;-75
2022/08/13 06:36:20;;;;;;;2.42;2.05;;;;;;;;;;5066660;28;20232;-75
2022/08/13 06:38:48;;;;;;;2.60;2.35;;;;;;;;;;5041559;28;20206;-74
2022/08/13 06:41:14;;;;;;;7.00;2.20;;;;;;;;;;5024301;28;20219;-74
2022/08/13 06:43:41;;;;;;;3.95;2.50;;;;;;;;;;5034350;28;20205;-74
2022/08/13 06:46:10;;;;;;;2.58;1.88;;;;;;;;;;5043628;28;20211;-74
2022/08/13 06:48:36;;;;;;;3.67;2.15;;;;;;;;;;5027804;28;20236;-74
2022/08/13 06:51:06;;;;;;;4.07;2.13;;;;;;;;;;5058956;28;20328;-76
2022/08/13 06:53:32;;;;;;;2.88;2.05;;;;;;;;;;5076848;28;20613;-76
2022/08/13 06:56:00;;;;;;;2.55;2.15;;;;;;;;;;5060728;28;20300;-76
2022/08/13 06:58:30;;;;;;;3.28;2.30;;;;;;;;;;5061052;28;20250;-75
2022/08/13 07:00:56;;;;;;;2.17;1.98;;;;;;;;;;5053431;28;20621;-76
2022/08/13 07:03:28;;;;;;;3.05;2.15;;;;;;;;;;5025122;28;20253;-76
2022/08/13 07:05:56;;;;;;;2.85;2.15;;;;;;;;;;5053854;28;20699;-76
2022/08/13 07:08:25;;;;;;;2.45;1.85;;;;;;;;;;5036107;28;21593;-76
2022/08/13 07:11:21;;;;;;;1.92;1.83;;;;;;;;;;5040762;28;20235;-76
2022/08/13 07:13:41;;;;;;;2.63;2.08;;;;;;;;;;5075828;28;20255;-76
2022/08/13 07:16:16;;;;;;;2.78;1.92;;;;;;;;;;5048223;28;20688;-75
2022/08/13 07:18:43;;;;;;;5.20;2.30;;;;;;;;;;5050472;28;20338;-75
2022/08/13 07:21:14;;;;;;;2.58;2.15;;;;;;;;;;5049878;28;20231;-75
2022/08/13 07:23:43;;;;;;;2.35;2.17;;;;;;;;;;5066889;28;20916;-75
2022/08/13 07:26:11;;;;;;;4.10;2.10;;;;;;;;;;5049912;28;20250;-75
2022/08/13 07:28:41;;;;;;;2.13;1.92;;;;;;;;;;5047256;28;20710;-76
2022/08/13 07:31:08;;;;;;;3.78;2.13;;;;;;;;;;5056186;28;20796;-73
2022/08/13 07:33:35;;;;;;;2.22;2.00;;;;;;;;;;5026576;28;20238;-76
2022/08/13 07:36:06;;;;;;;2.38;2.05;;;;;;;;;;5031373;28;20218;-76
2022/08/13 07:38:33;;;;;;;3.67;2.22;;;;;;;;;;5047384;28;20222;-76
2022/08/13 07:41:01;;;;;;;2.35;2.15;;;;;;;;;;5058376;28;20215;-75
2022/08/13 07:43:29;;;;;;;3.75;2.25;;;;;;;;;;5033753;28;20217;-75
2022/08/13 07:46:10;;;;;;;2.58;2.28;;;;;;;;;;5036292;28;20225;-75
2022/08/13 07:48:49;;;;;;;2.35;2.15;;;;;;;;;;5058825;28;20789;-76
2022/08/13 07:51:20;;;;;;;2.13;1.98;;;;;;;;;;5051314;28;20580;-76
2022/08/13 07:53:54;;;;;;;8.35;2.20;;;;;;;;;;5046281;28;20347;-76
2022/08/13 07:56:34;;;;;;;2.15;2.00;;;;;;;;;;5067260;28;20504;-75
2022/08/13 07:59:12;;;;;;;4.13;1.90;;;;;;;;;;5031930;28;20207;-77
2022/08/13 08:01:48;;;;;;;2.38;2.17;;;;;;;;;;5057189;28;20218;-76
2022/08/13 08:04:17;;;;;;;6.70;2.45;;;;;;;;;;5060692;28;20217;-76
2022/08/13 08:06:45;;;;;;;3.55;2.13;;;;;;;;;;5060814;28;20462;-76
2022/08/13 08:09:16;;;;;;;3.45;2.20;;;;;;;;;;5060644;28;20237;-77
2022/08/13 08:14:28;;;;;;;4.38;2.40;;;;;;;;;;5063740;28;20219;-76
2022/08/13 08:17:03;;;;;;;2.47;2.25;;;;;;;;;;5044521;28;20301;-77
2022/08/13 08:19:31;;;;;;;4.45;2.40;;;;;;;;;;5061965;28;20644;-76
2022/08/13 08:22:01;;;;;;;2.25;2.05;;;;;;;;;;5060745;28;20218;-75
2022/08/13 08:24:32;;;;;;;3.10;2.22;;;;;;;;;;5052217;28;20226;-75
2022/08/13 08:27:03;;;;;;;2.22;2.08;;;;;;;;;;5059493;28;20211;-75
2022/08/13 08:29:33;;;;;;;2.38;2.17;;;;;;;;;;5053185;28;20233;-76
2022/08/13 08:31:59;;;;;;;2.22;1.92;;;;;;;;;;5029555;28;20968;-75
2022/08/13 08:34:30;;;;;;;3.25;1.85;;;;;;;;;;5061385;28;20241;-76
2022/08/13 08:36:58;;;;;;;3.97;1.88;;;;;;;;;;5076177;28;20210;-75
2022/08/13 08:45:01;;;;;;;2.45;1.90;;;;;;;;;;5066992;28;20309;-75
2022/08/13 08:47:31;;;;;;;3.65;2.10;;;;;;;;;;5081575;28;20633;-75
2022/08/13 08:50:00;;;;;;;2.33;2.08;;;;;;;;;;5053331;28;20238;-76
2022/08/13 08:53:19;;;;;;;5.43;2.30;;;;;;;;;;5044900;28;20234;-74
2022/08/13 08:55:20;;;;;;;2.30;1.80;;;;;;;;;;5060342;28;20598;-74
2022/08/13 08:57:46;;;;;;;3.58;1.65;;;;;;;;;;5051739;28;20218;-78
2022/08/13 09:00:15;;;;;;;3.65;2.08;;;;;;;;;;5034986;28;20213;-76
2022/08/13 09:02:46;;;;;;;2.20;2.00;;;;;;;;;;5060576;28;20223;-75
2022/08/13 09:05:14;;;;;;;3.15;2.00;;;;;;;;;;5051532;28;20597;-76
2022/08/13 09:07:46;;;;;;;2.95;1.70;;;;;;;;;;5043178;28;20624;-77
2022/08/13 09:10:15;;;;;;;3.50;2.05;;;;;;;;;;5044949;28;20253;-76
2022/08/13 09:12:42;;;;;;;3.80;1.95;;;;;;;;;;5042055;28;20770;-75
2022/08/13 09:15:11;;;;;;;2.20;1.83;;;;;;;;;;5060475;28;20213;-75
2022/08/13 09:17:37;;;;;;;2.42;2.03;;;;;;;;;;5067196;28;20304;-75
2022/08/13 09:20:12;;;;;;;2.20;2.00;;;;;;;;;;5055905;28;20211;-76
2022/08/13 09:22:40;;;;;;;2.40;2.20;;;;;;;;;;5050208;28;20286;-75
2022/08/13 09:25:06;;;;;;;2.20;2.00;;;;;;;;;;5066085;28;20755;-75
2022/08/13 09:27:35;;;;;;;3.15;2.13;;;;;;;;;;5041500;28;20226;-74
2022/08/13 09:30:03;;;;;;;3.67;2.00;;;;;;;;;;5044557;28;20229;-75
2022/08/13 09:32:29;;;;;;;3.80;2.38;;;;;;;;;;5044184;28;20229;-75
2022/08/13 09:34:55;;;;;;;2.33;2.10;;;;;;;;;;5029329;28;20305;-74
2022/08/13 09:37:23;;;;;;;2.92;1.77;;;;;;;;;;5061513;28;20254;-75
2022/08/13 09:39:58;;;;;;;2.35;1.92;;;;;;;;;;5075026;28;20621;-76
2022/08/13 09:42:25;;;;;;;2.55;2.20;;;;;;;;;;5048288;28;20218;-77
2022/08/13 09:44:56;;;;;;;2.17;2.08;;;;;;;;;;5026604;28;20305;-77
2022/08/13 09:47:22;;;;;;;2.60;2.40;;;;;;;;;;5027010;28;20306;-76
2022/08/13 09:49:50;;;;;;;2.67;2.10;;;;;;;;;;5064090;28;20226;-75
2022/08/13 09:52:19;;;;;;;2.55;2.35;;;;;;;;;;5038720;28;20325;-75
2022/08/13 09:54:44;;;;;;;3.72;2.58;;;;;;;;;;5063417;28;20209;-75
2022/08/13 09:57:12;;;;;;;2.25;2.05;;;;;;;;;;5065658;28;20221;-75
2022/08/13 09:59:40;;;;;;;2.40;2.20;;;;;;;;;;5065268;28;20312;-74
2022/08/13 10:02:09;;;;;;;3.00;2.20;;;;;;;;;;5059480;28;20218;-74
2022/08/13 10:04:42;;;;;;;2.47;2.25;;;;;;;;;;5047879;28;20675;-74
2022/08/13 10:07:12;;;;;;;3.60;2.55;;;;;;;;;;5045822;28;20249;-75
2022/08/13 10:09:40;;;;;;;2.33;2.13;;;;;;;;;;5040839;28;20269;-76
2022/08/13 10:12:09;;;;;;;3.95;2.30;;;;;;;;;;5050954;28;20805;-76
2022/08/13 10:14:35;;;;;;;2.95;2.58;;;;;;;;;;5032115;28;20211;-74
2022/08/13 10:17:01;;;;;;;3.70;2.08;;;;;;;;;;5074711;28;20230;-75
2022/08/13 10:19:29;;;;;;;3.50;2.58;;;;;;;;;;5069279;28;20288;-75
2022/08/13 10:21:55;;;;;;;2.47;2.30;;;;;;;;;;5065247;28;20213;-74
2022/08/13 10:24:21;;;;;;;2.60;2.40;;;;;;;;;;5049637;28;20643;-74
2022/08/13 10:26:46;;;;;;;2.72;2.53;;;;;;;;;;5057937;28;20221;-73
2022/08/13 10:29:12;;;;;;;2.80;2.58;;;;;;;;;;5063199;28;20240;-75
2022/08/13 10:31:37;;;;;;;4.68;2.67;;;;;;;;;;5046817;28;20225;-75
2022/08/13 10:34:03;;;;;;;2.67;2.47;;;;;;;;;;5046690;28;20652;-74
2022/08/13 10:36:32;;;;;;;2.60;2.40;;;;;;;;;;5057764;28;20214;-74
2022/08/13 10:39:00;;;;;;;3.75;2.70;;;;;;;;;;5048511;28;20220;-76
2022/08/13 10:41:26;;;;;;;3.47;2.70;;;;;;;;;;5061693;28;20720;-74
2022/08/13 10:43:59;;;;;;;2.95;2.75;;;;;;;;;;5058441;28;20222;-73
2022/08/13 10:46:30;;;;;;;5.57;2.65;;;;;;;;;;5073907;28;20237;-72
2022/08/13 10:48:57;;;;;;;4.50;2.75;;;;;;;;;;5047741;28;20798;-74
2022/08/13 10:51:23;;;;;;;2.97;2.70;;;;;;;;;;5021254;28;20226;-75
2022/08/13 10:53:58;;;;;;;3.10;2.90;;;;;;;;;;5071213;28;20283;-74
2022/08/13 10:56:27;;;;;;;5.40;2.63;;;;;;;;;;5057835;28;20306;-75
2022/08/13 10:58:59;;;;;;;4.78;2.85;;;;;;;;;;5039868;28;20296;-75
2022/08/13 11:01:29;;;;;;;6.22;3.10;;;;;;;;;;5046064;28;20221;-77
2022/08/13 11:04:01;;;;;;;2.70;2.50;;;;;;;;;;5053452;28;20229;-75
2022/08/13 11:06:27;;;;;;;2.60;2.40;;;;;;;;;;5064823;28;20229;-76
2022/08/13 11:08:56;;;;;;;4.03;2.78;;;;;;;;;;5062973;28;20232;-75
2022/08/13 11:11:23;;;;;;;2.80;2.60;;;;;;;;;;5042928;28;20244;-76
2022/08/13 11:13:48;;;;;;;3.50;2.38;;;;;;;;;;5051290;28;20605;-75
2022/08/13 11:18:59;;;;;;;2.97;2.67;;;;;;;;;;5047734;28;20856;-75
2022/08/13 11:21:25;;;;;;;3.50;3.20;;;;;;;;;;5064808;28;20206;-75
2022/08/13 11:23:54;;;;;;;3.45;3.03;;;;;;;;;;5046877;28;20221;-75
2022/08/13 11:26:22;;;;;;;3.47;3.17;;;;;;;;;;5064754;28;20715;-76
2022/08/13 11:28:49;;;;;;;4.35;3.40;;;;;;;;;;5047512;28;20218;-75
2022/08/13 11:31:17;;;;;;;4.43;3.10;;;;;;;;;;5050692;28;20272;-75
2022/08/13 11:33:43;;;;;;;4.10;3.45;;;;;;;;;;5060714;28;20221;-75
2022/08/13 11:36:09;;;;;;;3.47;3.28;;;;;;;;;;5064525;28;20215;-74
2022/08/13 11:38:39;;;;;;;4.07;3.08;;;;;;;;;;5047288;28;20628;-76
2022/08/13 11:41:05;;;;;;;3.88;3.40;;;;;;;;;;5075784;28;20700;-74
2022/08/13 11:43:30;;;;;;;3.50;3.20;;;;;;;;;;5058350;28;20234;-74
2022/08/13 11:45:58;;;;;;;4.85;3.13;;;;;;;;;;5052937;28;20258;-74
2022/08/13 11:48:27;;;;;;;4.80;3.20;;;;;;;;;;5044694;28;20687;-75
2022/08/13 11:50:55;;;;;;;8.82;3.28;;;;;;;;;;5050454;28;20233;-76
2022/08/13 11:53:23;;;;;;;3.92;2.80;;;;;;;;;;5068682;28;20230;-76
2022/08/13 11:55:53;;;;;;;3.38;3.08;;;;;;;;;;5052055;28;20218;-75
2022/08/13 11:58:22;;;;;;;3.33;3.03;;;;;;;;;;5045325;28;20218;-75
2022/08/13 12:00:54;;;;;;;4.70;3.10;;;;;;;;;;5076592;28;20222;-75
2022/08/13 12:03:20;;;;;;;3.70;2.83;;;;;;;;;;5082499;28;20234;-76
2022/08/13 12:05:45;;;;;;;6.53;3.30;;;;;;;;;;5048740;28;20225;-75
2022/08/13 12:08:15;;;;;;;3.40;3.10;;;;;;;;;;5052225;28;20221;-75
2022/08/13 12:10:40;;;;;;;3.92;3.55;;;;;;;;;;5066068;28;20601;-75
2022/08/13 12:13:06;;;;;;;3.65;3.35;;;;;;;;;;5055752;28;20325;-76
2022/08/13 12:15:33;;;;;;;3.95;3.38;;;;;;;;;;5052166;28;20218;-76
2022/08/13 12:18:01;;;;;;;4.72;3.50;;;;;;;;;;5032044;28;20226;-76
2022/08/13 12:20:27;;;;;;;3.75;3.45;;;;;;;;;;5044904;28;20270;-75
2022/08/13 12:22:58;;;;;;;4.13;3.60;;;;;;;;;;5042869;28;20689;-76
2022/08/13 12:25:27;;;;;;;3.75;3.45;;;;;;;;;;5050437;28;20222;-75
2022/08/13 12:28:17;;;;;;;4.90;3.88;;;;;;;;;;5043193;28;20817;-75
2022/08/13 12:30:48;;;;;;;4.15;3.63;;;;;;;;;;5062622;28;20233;-76
2022/08/13 12:33:17;;;;;;;4.10;3.70;;;;;;;;;;5045524;28;20226;-75
2022/08/13 12:35:43;;;;;;;4.40;4.00;;;;;;;;;;5060408;28;20218;-75
2022/08/13 12:38:13;;;;;;;4.20;3.80;;;;;;;;;;5043215;28;20222;-76
2022/08/13 12:40:43;;;;;;;5.13;4.13;;;;;;;;;;5059080;28;20309;-76
2022/08/13 12:43:11;;;;;;;4.20;3.83;;;;;;;;;;5058938;28;20583;-75
2022/08/13 12:45:42;;;;;;;3.88;3.58;;;;;;;;;;5045771;28;20214;-74
2022/08/13 12:48:12;;;;;;;4.70;4.10;;;;;;;;;;5060978;28;21037;-76
2022/08/13 12:50:46;;;;;;;4.60;4.00;;;;;;;;;;5036981;28;20250;-75
2022/08/13 12:53:12;;;;;;;5.15;4.07;;;;;;;;;;5034455;28;20226;-75
2022/08/13 12:55:41;;;;;;;4.28;3.90;;;;;;;;;;5059876;28;20517;-75
2022/08/13 12:58:15;;;;;;;3.83;3.53;;;;;;;;;;5045497;28;20218;-75
2022/08/13 13:00:45;;;;;;;4.10;3.80;;;;;;;;;;5063983;28;20268;-74
2022/08/13 13:03:11;;;;;;;4.43;4.03;;;;;;;;;;5053632;28;20644;-74
2022/08/13 13:05:37;;;;;;;5.45;3.70;;;;;;;;;;5056938;28;20268;-75
2022/08/13 13:08:32;;;;;;;4.10;3.70;;;;;;;;;;5061559;28;20215;-77
2022/08/13 13:11:06;;;;;;;4.28;3.88;;;;;;;;;;5067281;28;20230;-74
2022/08/13 13:13:35;;;;;;;4.32;3.92;;;;;;;;;;5065893;28;20215;-74
2022/08/13 13:16:02;;;;;;;4.22;3.83;;;;;;;;;;5051468;28;20214;-74
2022/08/13 13:18:30;;;;;;;4.80;3.65;;;;;;;;;;5046513;28;20249;-75
2022/08/13 13:20:56;;;;;;;3.97;3.67;;;;;;;;;;5043566;28;20231;-75
2022/08/13 13:23:26;;;;;;;5.80;3.80;;;;;;;;;;5064666;28;20961;-76
2022/08/13 13:25:51;;;;;;;5.65;4.00;;;;;;;;;;5043777;28;20590;-74
2022/08/13 13:28:19;;;;;;;4.00;3.70;;;;;;;;;;5040036;28;20313;-74
2022/08/13 13:30:46;;;;;;;4.22;3.92;;;;;;;;;;5043569;28;20768;-74
2022/08/13 13:33:14;;;;;;;4.93;3.70;;;;;;;;;;5040041;28;20776;-73
2022/08/13 13:35:43;;;;;;;5.13;3.90;;;;;;;;;;5041027;28;20551;-73
2022/08/13 13:38:12;;;;;;;4.43;3.58;;;;;;;;;;5039735;28;20219;-74
2022/08/13 13:40:44;;;;;;;4.05;3.65;;;;;;;;;;5056009;28;20225;-75
2022/08/13 13:43:16;;;;;;;4.90;3.78;;;;;;;;;;5044486;28;20234;-75
2022/08/13 13:45:47;;;;;;;6.75;4.15;;;;;;;;;;5055795;28;20564;-75
2022/08/13 13:48:26;;;;;;;4.22;3.92;;;;;;;;;;5044109;28;20289;-74
2022/08/13 13:50:58;;;;;;;4.35;3.95;;;;;;;;;;5092019;28;20284;-74
2022/08/13 13:53:33;;;;;;;4.88;4.00;;;;;;;;;;5056156;28;20213;-74
2022/08/13 13:55:59;;;;;;;4.78;3.80;;;;;;;;;;5040255;28;20594;-74
2022/08/13 13:58:31;;;;;;;4.18;3.88;;;;;;;;;;5039693;28;20285;-74
2022/08/13 14:00:57;;;;;;;3.92;3.63;;;;;;;;;;5044240;28;20267;-75
2022/08/13 14:03:23;;;;;;;5.53;4.00;;;;;;;;;;5027389;28;20230;-75
2022/08/13 14:05:51;;;;;;;5.15;3.55;;;;;;;;;;5049371;28;20650;-75
2022/08/13 14:08:18;;;;;;;4.53;4.22;;;;;;;;;;5058439;28;20214;-75
2022/08/13 14:10:46;;;;;;;4.75;3.80;;;;;;;;;;5044879;28;20250;-75
2022/08/13 14:13:12;;;;;;;4.63;4.10;;;;;;;;;;5064291;28;20238;-75
2022/08/13 14:15:38;;;;;;;3.92;3.63;;;;;;;;;;5046091;28;20215;-74
2022/08/13 14:18:08;;;;;;;4.43;3.53;;;;;;;;;;5045675;28;20809;-76
2022/08/13 14:20:38;;;;;;;4.05;3.75;;;;;;;;;;5029111;28;20216;-75
2022/08/13 14:23:09;;;;;;;5.55;3.97;;;;;;;;;;5048405;28;20224;-74
2022/08/13 14:25:37;;;;;;;5.10;3.40;;;;;;;;;;5060606;28;20231;-74
2022/08/13 14:28:03;;;;;;;4.30;3.90;;;;;;;;;;5056407;28;20226;-75
2022/08/13 14:30:28;;;;;;;4.82;4.00;;;;;;;;;;5049661;28;20225;-75
2022/08/13 14:32:59;;;;;;;3.95;3.65;;;;;;;;;;5039051;28;20412;-75
2022/08/13 14:35:25;;;;;;;4.10;3.70;;;;;;;;;;5029965;28;20687;-75
2022/08/13 14:37:52;;;;;;;4.82;3.67;;;;;;;;;;5044062;28;20687;-75
2022/08/13 14:40:19;;;;;;;4.15;3.53;;;;;;;;;;5037916;28;20229;-75
2022/08/13 14:42:55;;;;;;;3.80;3.50;;;;;;;;;;5042598;28;20214;-74
2022/08/13 14:48:09;;;;;;;4.13;3.65;;;;;;;;;;5059711;28;20221;-74
2022/08/13 14:50:36;;;;;;;4.05;3.63;;;;;;;;;;5078695;28;20690;-74
2022/08/13 14:53:02;;;;;;;3.88;3.58;;;;;;;;;;5059318;28;20836;-76
2022/08/13 14:55:28;;;;;;;4.53;3.97;;;;;;;;;;5061056;28;20545;-74
2022/08/13 14:57:55;;;;;;;6.43;3.90;;;;;;;;;;5042075;28;20218;-75
2022/08/13 15:00:23;;;;;;;4.07;3.78;;;;;;;;;;5048164;28;20230;-76
2022/08/13 15:02:51;;;;;;;5.63;3.88;;;;;;;;;;5047649;28;20265;-77
2022/08/13 15:05:22;;;;;;;6.13;3.90;;;;;;;;;;5042186;28;20710;-74
2022/08/13 15:07:50;;;;;;;3.88;3.50;;;;;;;;;;5062497;28;20223;-74
2022/08/13 15:10:18;;;;;;;4.35;3.70;;;;;;;;;;5030381;28;20579;-75
2022/08/13 15:12:47;;;;;;;4.80;3.92;;;;;;;;;;5064098;28;20226;-75
2022/08/13 15:15:17;;;;;;;3.95;3.63;;;;;;;;;;5027575;28;20853;-76
2022/08/13 15:17:45;;;;;;;4.10;3.70;;;;;;;;;;5086654;28;20714;-75
2022/08/13 15:20:15;;;;;;;3.90;3.60;;;;;;;;;;5054093;28;20283;-76